Archival Weather

Snohomish County (Paine Fld)

Everett, Washington (KPAE)

Report from: Tuesday, November 14, 2023 8:53 PM PST
Current time: Friday, June 14, 2024 5:58 AM PDT

Current weather – Weather history – Daily summaries
Weather forecast

Temperature3.3°C (37.9°F)
Dew point1.7°C (35.1°F)
Winds Calm
Visibility8 mi. (12.9 km)
Clouds Sky clear
Altimeter29.99 in.Hg (1016 mB)
Relative humidity89 %
Density altitude-1,414 ft. (-431 m)
Sea-level pressure101.6 kPa (1016 mB, 30.01 in.Hg)
Remarks Fully automated report
Automated weather observing station with precipitation discriminator
Flight conditions Visual Meteorological Conditions
Raw dataKPAE 150453Z AUTO 00000KT 8SM CLR 03/02 A2999 RMK AO2 SLP161 T00330017
An error has occurred. This application may no longer respond until reloaded. Reload 🗙